Bookmark and Share
Track history (hours):
 

Ms-hammaritha

Last reported at 2014-Apr-18 12:27 UTC. Time now 2014-Apr-18 13:19 UTC.
Position N 52°01' E 006°04'.

Length 86 m.

Type: Ship. MMSI: 244700691.

NotesDate/timePositionNaut miles runAvg speedWind from/ knotsBaromVisibWave heightAir tempDewpointWater temp
2014-Apr-18 12:27N 52°01' E 006°04'0 0.0
2014-Apr-18 11:33N 52°01' E 006°04'0 0.2
2014-Apr-18 10:30N 52°01' E 006°03'0 0.0
2014-Apr-18 09:26N 52°01' E 006°03'0 0.1
2014-Apr-18 08:23N 52°01' E 006°04'5 4.5
2014-Apr-18 07:15N 51°58' E 005°57'6 7.5
2014-Apr-18 06:25N 51°52' E 006°03'4 4.5
2014-Apr-18 05:27N 51°52' E 005°56'  
2014-Apr-14 09:33N 51°47' E 005°42'5 5.5
2014-Apr-14 08:34N 51°50' E 005°35'5 4.6
2014-Apr-14 07:34N 51°49' E 005°28'2 2.3
2014-Apr-14 06:34N 51°49' E 005°24'6 6.1
2014-Apr-14 05:33N 51°44' E 005°18'6 0.8
2014-Apr-13 22:34N 51°46' E 005°10'0 0.0
2014-Apr-13 21:34N 51°46' E 005°10'0 0.0
2014-Apr-13 20:33N 51°46' E 005°10'0 0.0
2014-Apr-13 19:33N 51°46' E 005°10'0 0.0
2014-Apr-13 18:33N 51°46' E 005°10'0 0.0
2014-Apr-13 17:33N 51°46' E 005°10'0 0.0
2014-Apr-13 16:33N 51°46' E 005°10'0 0.0
2014-Apr-13 15:33N 51°46' E 005°10'0 0.0
2014-Apr-13 14:34N 51°46' E 005°10'0 0.0
2014-Apr-13 13:34N 51°46' E 005°10'0 0.0
2014-Apr-13 12:33N 51°46' E 005°10'0 0.0
2014-Apr-13 11:33N 51°46' E 005°10'0 0.0
2014-Apr-13 10:33N 51°46' E 005°10'0 0.0
2014-Apr-13 09:33N 51°46' E 005°10'0 0.0
2014-Apr-13 08:33N 51°46' E 005°10'0 0.0
2014-Apr-13 07:33N 51°46' E 005°10'0 0.0
2014-Apr-13 06:33N 51°46' E 005°10'0 0.0
2014-Apr-13 05:34N 51°46' E 005°10'0 0.0
2014-Apr-13 04:34N 51°46' E 005°10'0 0.0
2014-Apr-13 03:33N 51°46' E 005°10'0 0.0
2014-Apr-13 02:34N 51°46' E 005°10'0 0.0
2014-Apr-13 01:33N 51°46' E 005°10'0 0.0
2014-Apr-13 00:33N 51°46' E 005°10'0 0.0
2014-Apr-12 23:33N 51°46' E 005°10'0 0.0
2014-Apr-12 22:33N 51°46' E 005°10'0 0.0
2014-Apr-12 21:34N 51°46' E 005°10'0 0.0
2014-Apr-12 20:34N 51°46' E 005°10'0 0.0
2014-Apr-12 19:33N 51°46' E 005°10'0 0.0
2014-Apr-12 18:34N 51°46' E 005°10'0 0.0
2014-Apr-12 17:33N 51°46' E 005°10'0 0.0
2014-Apr-12 16:33N 51°46' E 005°10'0 0.0
2014-Apr-12 15:33N 51°46' E 005°10'0 0.0
2014-Apr-12 14:33N 51°46' E 005°10'0 0.0
2014-Apr-12 13:33N 51°46' E 005°10'0 0.0
2014-Apr-12 12:33N 51°46' E 005°10'0 0.0
2014-Apr-12 11:34N 51°46' E 005°10'0 0.0
2014-Apr-12 10:34N 51°46' E 005°10'0 0.0
2014-Apr-12 09:33N 51°46' E 005°10'0 0.0
2014-Apr-12 08:33N 51°46' E 005°10'0 0.1
2014-Apr-12 07:33N 51°45' E 005°09'4 4.4
2014-Apr-12 06:33N 51°43' E 005°04'6 6.1
2014-Apr-12 05:34N 51°43' E 004°54'6 6.0
2014-Apr-12 04:33N 51°44' E 004°44'5 4.6
2014-Apr-12 03:33N 51°46' E 004°38'4 3.6
2014-Apr-12 02:34N 51°49' E 004°40'0 0.0
2014-Apr-12 01:33N 51°49' E 004°40'0 0.0
2014-Apr-12 00:34N 51°49' E 004°40'0 0.0
2014-Apr-11 23:33N 51°49' E 004°40'0 0.0
2014-Apr-11 22:33N 51°49' E 004°40'0 0.0
2014-Apr-11 21:33N 51°49' E 004°40'0 0.0
2014-Apr-11 20:33N 51°49' E 004°40'0 0.0
2014-Apr-11 19:33N 51°49' E 004°40'0 0.0
2014-Apr-11 18:34N 51°49' E 004°40'2 2.4
2014-Apr-11 17:34N 51°51' E 004°39'6 4.9
2014-Apr-11 16:21N 51°54' E 004°31'3 3.4
2014-Apr-11 15:27N 51°53' E 004°26'0 0.1
2014-Apr-11 14:11N 51°53' E 004°26'0 0.0
2014-Apr-11 13:27N 51°53' E 004°26'0 0.1
2014-Apr-11 08:26N 51°53' E 004°27'3 3.3
2014-Apr-11 07:33N 51°55' E 004°31'7 7.5
2014-Apr-11 06:33N 51°50' E 004°40'8 8.3
2014-Apr-11 05:33N 51°49' E 004°54'6 5.8
2014-Apr-11 04:32N 51°48' E 005°03'5 5.0
2014-Apr-11 03:33N 51°46' E 005°10'0 0.2
2014-Apr-11 02:33N 51°46' E 005°10'0 0.0
2014-Apr-11 01:33N 51°46' E 005°10'0 0.0
2014-Apr-11 00:33N 51°46' E 005°10'0 0.0
2014-Apr-10 23:33N 51°46' E 005°10'0 0.0
2014-Apr-10 22:33N 51°46' E 005°10'0 0.0
2014-Apr-10 21:33N 51°46' E 005°10'0 0.0
2014-Apr-10 20:33N 51°46' E 005°10'0 0.0
2014-Apr-10 19:33N 51°46' E 005°10'0 0.0
2014-Apr-10 18:33N 51°46' E 005°10'0 0.0
2014-Apr-10 17:33N 51°46' E 005°10'0 0.0
2014-Apr-10 16:33N 51°46' E 005°10'0 0.0
2014-Apr-10 15:33N 51°46' E 005°10'0 0.0
2014-Apr-10 14:33N 51°46' E 005°10'0 0.0
2014-Apr-10 13:33N 51°46' E 005°10'0 0.0
2014-Apr-10 12:33N 51°46' E 005°10'0 0.0
2014-Apr-10 11:33N 51°46' E 005°10'0 0.0
2014-Apr-10 10:33N 51°46' E 005°10'0 0.0
2014-Apr-10 09:33N 51°46' E 005°10'0 0.0
2014-Apr-10 08:33N 51°46' E 005°10'0 0.0
2014-Apr-10 07:33N 51°46' E 005°10'0 0.0
2014-Apr-10 06:33N 51°46' E 005°10'0 0.0
2014-Apr-10 05:33N 51°46' E 005°10'0 0.0
2014-Apr-10 04:33N 51°46' E 005°10'0 0.0
2014-Apr-10 03:33N 51°46' E 005°10'0 0.0
2014-Apr-10 02:33N 51°46' E 005°10'0 0.0
2014-Apr-10 01:33N 51°46' E 005°10'0 0.0
2014-Apr-10 00:33N 51°46' E 005°10'0 0.0
2014-Apr-09 23:33N 51°46' E 005°10'0 0.0
2014-Apr-09 22:33N 51°46' E 005°10'0 0.0
2014-Apr-09 21:33N 51°46' E 005°10'0 0.0
2014-Apr-09 20:33N 51°46' E 005°10'0 0.0
2014-Apr-09 19:33N 51°46' E 005°10'0 0.0
2014-Apr-09 18:33N 51°46' E 005°10'0 0.0
2014-Apr-09 17:33N 51°46' E 005°10'0 0.0
2014-Apr-09 16:33N 51°46' E 005°10'0 0.0
2014-Apr-09 15:33N 51°46' E 005°10'0 0.0
2014-Apr-09 14:33N 51°46' E 005°10'0 0.0
2014-Apr-09 13:33N 51°46' E 005°10'0 0.0
2014-Apr-09 12:33N 51°46' E 005°10'0 0.0
2014-Apr-09 11:33N 51°46' E 005°10'0 0.0
2014-Apr-09 10:33N 51°46' E 005°10'0 0.0
2014-Apr-09 09:33N 51°46' E 005°10'0 0.0
2014-Apr-09 08:33N 51°46' E 005°10'0 0.0
2014-Apr-09 07:33N 51°46' E 005°10'0 0.0
2014-Apr-09 06:33N 51°46' E 005°10'0 0.0
2014-Apr-09 05:33N 51°46' E 005°10'0 0.0
2014-Apr-09 04:33N 51°46' E 005°10'0 0.0
2014-Apr-09 03:33N 51°46' E 005°10'0 0.0
2014-Apr-09 02:33N 51°46' E 005°10'0 0.0
2014-Apr-09 01:33N 51°46' E 005°10'0 0.0
2014-Apr-09 00:33N 51°46' E 005°10'0 0.0
2014-Apr-08 23:33N 51°46' E 005°10'0 0.0
2014-Apr-08 22:33N 51°46' E 005°10'0 0.0
2014-Apr-08 21:33N 51°46' E 005°10'0 0.0
2014-Apr-08 20:33N 51°46' E 005°10'0 0.0
2014-Apr-08 19:33N 51°46' E 005°10'0 0.0
2014-Apr-08 18:33N 51°46' E 005°10'0 0.0
2014-Apr-08 17:33N 51°46' E 005°10'0 0.0
2014-Apr-08 16:33N 51°46' E 005°10'0 0.0
2014-Apr-08 15:33N 51°46' E 005°10'0 0.0
2014-Apr-08 14:33N 51°46' E 005°10'0 0.0
2014-Apr-08 13:33N 51°46' E 005°10'0 0.0
2014-Apr-08 12:33N 51°46' E 005°10'  

Dump ship's entire track history

sailing weather and tide predictions

Ms-hammaritha — PF2437 — position and weather